LOWSLDDU

Guest
Details From LOWS - Salzburg Maxglan
To LDDU - Dubrovnik
Flight Number -
Tags Generated
Created
Modified
Stats Distance 385 nm / 713 km
Max Altitude 0 ft / 0 m
Waypoints 3
Social Downloads 0
Likes 0
Share VATSIM

Download

Looking for another format? Having issues loading an existing format? Contact us
Advertisement - Login to hide

Notes

Generated

Route

LOWS R2155 LDDU

ID Type Via Altitude Latitude Longitude Leg Dist Tot Dist Heading (true) Name
O LOWS APT - 0 ft / 0 m 47.80472˚ 12.99717˚ - 0 nm - -
R2155 FIX - 0 ft / 0 m 42.56923˚ 18.24840˚ 384 nm 384 nm 143° / 147° -
O LDDU APT - 0 ft / 0 m 42.56986˚ 18.24681˚ 0 nm 384 nm 298° / 298° -

Altitude Profile

Advertisement - Login to hide

Weather


0- 5 10 15 20 25 30 35+ Temperature / ° C

Clouds and Precipitation
Forecast for 2018-05-26 12:00 UTC. Updated an hour ago

Ground ~20,000 ft ~40,000 ft Winds

LOWS

Details ICAO LOWS (SZG)
Name Salzburg Maxglan
Region Austria
Timezone Europe/Vienna (UTC+2.0)
Stats Elevation 1,411 ft / 430 m (AMSL)
Location 47.793333° 13.004333°
Runways 1
Magnetic Variation 3.481° E

METAR

LOWS 261150Z 29006KT 240V320 9999 FEW060 SCT300 25/12 Q1020 NOSIG

Decode

TAF

TAF LOWS 261115Z 2612/2712 02006KT 9999 FEW060 SCT300 TX27/2712Z TN14/2703Z BECMG 2618/2620 15005KT CAVOK BECMG 2707/2709 03006KT 9999 FEW060 BKN300

Decode

Departure Runways

ID Width Length Bearing (true) Bearing (mag) Surface Threshold Offset Overrun Length
16 148 ft / 45 m 9,024 ft / 2,751 m 157.08° 153.60° Concrete 656 ft / 200 m 0 ft / 0 m
34 148 ft / 45 m 9,024 ft / 2,751 m 337.09° 333.61° Concrete 787 ft / 240 m 0 ft / 0 m

LDDU

Details ICAO LDDU (DBV)
Name DUBROVNIK
Region Croatia
Timezone Europe/Zagreb (UTC+2.0)
Stats Elevation 527 ft / 161 m (AMSL)
Location 42.562840° 18.264499°
Runways 1
Magnetic Variation 4.147° E

METAR

LDDU 261200Z 27008KT 190V310 9999 FEW040 26/17 Q1018 NOSIG

Decode

TAF

TAF LDDU 261125Z 2612/2712 29008KT 9999 FEW040 TX27/2612Z TN22/2704Z TEMPO 2613/2617 FEW035TCU BECMG 2618/2620 05007KT BECMG 2709/2711 26008KT

Decode

Destination Runways

ID Width Length Bearing (true) Bearing (mag) Surface Threshold Offset Overrun Length
12 148 ft / 45 m 10,803 ft / 3,293 m 118.30° 114.15° Asphalt 488 ft / 149 m 100 ft / 30 m
30 148 ft / 45 m 10,803 ft / 3,293 m 298.33° 294.18° Asphalt 0 ft / 0 m 100 ft / 30 m

Approach Navaids

Runway Type Ident Frequency Range Bearing (true) Bearing (mag) Slope Elevation
12 Localiser IDU 110.10 MHz 25 nm / 46 km 118.21° 114.06° - 469 ft / 143 m (AMSL)
12 Glidescope IDU 110.10 MHz 25 nm / 46 km 118.21° 114.06° 3.00° 502 ft / 153 m (AMSL)

Popular Alternatives